Main page
METAR-TAF:

METAR-TAF

Airports :

Zagreb Airport

Zagreb, Croatia

latitude: 45-44N, longitude: 016-04E, elevation: 106 m

Current weather observation

The report was made 17 minutes ago, at 01:00 UTC
Calm wind
Temperature 9°C
Humidity 71%
Pressure 1019 hPa
Visibility 10 km or more
Broken clouds at a height of 4500 ft

METAR: LDZA 110100Z 00000KT 9999 BKN045 09/04 Q1019 NOSIG

Time: 03:17 (01:17 UTC)

Forecast

The report was made 1 hour and 52 minutes ago, at 23:25 UTC
Forecast valid from 11 at 00 UTC to 12 at 00 UTC
Wind 7 kt from the Southwest
Visibility 10 km or more
no clouds below 1500 m and no cumulonimbus
Probability 30% :
Temporary
from 11 at 06 UTC to 11 at 18 UTC
Wind 13 kt from the Southwest

TAF: LDZA 102325Z 1100/1200 22007KT CAVOK TX16/1113Z TN07/1104Z PROB30 TEMPO 1106/1118 22013KT

Weather observations and forecasts of more than 4000 airports (METAR and TAF reports).

The available stations are represented by yellow and red dots on the map.

Hover mouse over dot to see the name of the station.

Then click to see weather observations and forecasts.

To change the map : click on the green buttons with a black cross to zoom in, on the green button with a dash to zoom out, or on the green arrows for adjacent maps.


METAR-TAF: